Time;durP1;ratioP1;P1;durP2;ratioP2;P2;SDS_P1;SDS_P2;PMS_P1;PMS_P2;Temp;Humidity;BMP_temperature;BMP_pressure;BME280_temperature;BME280_humidity;BME280_pressure;Samples;Min_cycle;Max_cycle;Signal;HPM_P1;HPM_P2
2023/07/17 03:58:27;;;;;;;1.33;1.33;;;16.50;99.90;;;;;;5690111;23;20254;-70
2023/07/17 04:00:54;;;;;;;1.73;1.73;;;16.40;99.90;;;;;;4994697;28;20665;-70
2023/07/17 04:03:20;;;;;;;1.50;1.50;;;16.50;99.90;;;;;;4995375;28;20214;-70
2023/07/17 04:05:47;;;;;;;1.30;1.30;;;16.50;99.90;;;;;;4995179;28;20215;-70
2023/07/17 04:08:14;;;;;;;1.20;1.20;;;16.60;99.90;;;;;;4995037;28;20368;-71
2023/07/17 04:10:41;;;;;;;1.15;1.15;;;16.60;99.90;;;;;;4996251;28;20286;-69
2023/07/17 04:13:08;;;;;;;1.60;1.55;;;16.60;99.90;;;;;;4994535;28;20654;-69
2023/07/17 04:15:37;;;;;;;1.20;1.20;;;16.70;99.90;;;;;;4994823;28;20218;-68
2023/07/17 04:18:04;;;;;;;1.10;1.10;;;16.70;99.90;;;;;;4994830;28;20250;-68
2023/07/17 04:20:31;;;;;;;1.35;1.33;;;16.70;99.90;;;;;;4994822;28;20210;-68
2023/07/17 04:22:57;;;;;;;1.40;1.40;;;16.70;99.90;;;;;;4993642;28;20574;-68
2023/07/17 04:25:24;;;;;;;1.52;1.52;;;16.80;99.90;;;;;;4994779;28;20203;-67
2023/07/17 04:27:51;;;;;;;1.33;1.33;;;16.80;99.90;;;;;;4994708;28;20222;-69
2023/07/17 04:30:18;;;;;;;1.20;1.20;;;16.80;99.90;;;;;;4994749;28;20203;-70
2023/07/17 04:32:46;;;;;;;1.30;1.30;;;16.80;99.90;;;;;;4994933;28;20229;-70
2023/07/17 04:35:12;;;;;;;1.10;1.10;;;17.00;99.90;;;;;;4995208;28;20218;-70
2023/07/17 04:37:40;;;;;;;1.23;1.23;;;17.10;99.90;;;;;;4994523;28;20629;-70
2023/07/17 04:40:08;;;;;;;1.30;1.30;;;17.40;99.90;;;;;;4994547;28;20282;-68
2023/07/17 04:42:35;;;;;;;1.20;1.20;;;17.50;99.90;;;;;;4994461;28;20207;-69
2023/07/17 04:45:02;;;;;;;1.02;1.02;;;17.50;99.90;;;;;;4994139;28;20574;-69
2023/07/17 04:47:28;;;;;;;1.50;1.50;;;17.60;99.90;;;;;;4994210;28;20222;-71
2023/07/17 04:49:56;;;;;;;1.40;1.40;;;17.60;99.90;;;;;;4994403;28;20206;-72
2023/07/17 04:52:23;;;;;;;1.25;1.25;;;17.60;99.90;;;;;;4994430;28;20206;-72
2023/07/17 04:54:50;;;;;;;1.60;1.50;;;17.70;99.90;;;;;;4993993;28;20213;-72
2023/07/17 04:57:16;;;;;;;1.52;1.50;;;17.70;99.90;;;;;;4994244;28;20222;-72
2023/07/17 04:59:43;;;;;;;1.92;1.83;;;17.90;99.90;;;;;;4994246;28;20213;-73
2023/07/17 05:02:10;;;;;;;1.50;1.48;;;17.90;99.90;;;;;;4994792;28;20198;-77
2023/07/17 05:04:37;;;;;;;1.27;1.27;;;17.90;99.90;;;;;;4994728;28;20206;-73
2023/07/17 05:07:05;;;;;;;1.42;1.42;;;17.90;99.90;;;;;;4994332;28;20198;-72
2023/07/17 05:09:32;;;;;;;1.70;1.70;;;17.90;99.90;;;;;;4994241;28;20198;-72
2023/07/17 05:11:59;;;;;;;1.30;1.30;;;18.00;99.90;;;;;;4993948;28;20670;-72
2023/07/17 05:14:26;;;;;;;1.42;1.42;;;18.20;99.90;;;;;;4994149;28;20206;-71
2023/07/17 05:16:52;;;;;;;1.67;1.67;;;18.40;99.90;;;;;;4994053;28;20222;-72
2023/07/17 05:19:19;;;;;;;1.50;1.40;;;18.50;99.90;;;;;;4994123;28;20226;-73
2023/07/17 05:21:46;;;;;;;1.65;1.55;;;18.60;99.90;;;;;;4994149;28;20234;-73
2023/07/17 05:24:15;;;;;;;1.42;1.33;;;18.70;99.90;;;;;;4993748;28;20669;-71
2023/07/17 05:26:41;;;;;;;1.65;1.63;;;18.70;99.90;;;;;;4994140;28;20202;-71
2023/07/17 05:29:08;;;;;;;1.17;1.17;;;18.70;99.90;;;;;;4993756;28;20750;-70
2023/07/17 05:31:35;;;;;;;1.70;1.60;;;18.90;99.90;;;;;;4993860;28;20553;-70
2023/07/17 05:34:01;;;;;;;1.30;1.30;;;19.10;99.90;;;;;;4996312;28;20209;-70
2023/07/17 05:36:28;;;;;;;1.48;1.48;;;19.10;99.90;;;;;;4997733;28;20218;-70
2023/07/17 05:38:55;;;;;;;1.33;1.33;;;19.30;99.90;;;;;;4997900;28;20225;-70
2023/07/17 05:41:23;;;;;;;1.30;1.30;;;19.50;99.90;;;;;;4997974;28;20206;-70
2023/07/17 05:43:50;;;;;;;1.48;1.48;;;19.80;99.90;;;;;;4997854;28;20202;-70
2023/07/17 05:46:16;;;;;;;1.60;1.58;;;20.20;99.90;;;;;;4998331;28;20535;-70
2023/07/17 05:48:43;;;;;;;1.92;1.83;;;20.20;99.90;;;;;;4997792;28;20222;-70
2023/07/17 05:51:10;;;;;;;1.50;1.50;;;20.30;99.90;;;;;;4997794;28;20205;-70
2023/07/17 05:53:36;;;;;;;1.70;1.60;;;20.40;99.90;;;;;;4997788;28;20202;-70
2023/07/17 05:56:03;;;;;;;2.13;1.92;;;20.70;99.90;;;;;;4997943;28;20218;-70
2023/07/17 05:58:31;;;;;;;1.40;1.40;;;21.20;99.90;;;;;;4997188;28;20226;-70
2023/07/17 06:00:58;;;;;;;2.00;1.90;;;21.80;99.90;;;;;;4997317;28;20206;-71
2023/07/17 06:03:25;;;;;;;1.52;1.48;;;22.40;99.90;;;;;;4997320;28;20657;-71
2023/07/17 06:05:52;;;;;;;1.33;1.23;;;22.80;99.90;;;;;;4997928;28;20206;-71
2023/07/17 06:08:19;;;;;;;1.55;1.55;;;23.10;99.90;;;;;;4998012;28;20233;-70
2023/07/17 06:10:46;;;;;;;1.77;1.38;;;23.30;99.90;;;;;;4997432;28;20209;-70
2023/07/17 06:13:13;;;;;;;3.22;1.80;;;23.50;99.90;;;;;;4997307;28;20209;-70
2023/07/17 06:15:41;;;;;;;1.70;1.70;;;23.80;99.90;;;;;;4997319;28;20268;-70
2023/07/17 06:18:08;;;;;;;2.70;1.73;;;24.30;99.90;;;;;;4996814;28;20740;-70
2023/07/17 06:20:35;;;;;;;1.30;1.30;;;25.00;99.90;;;;;;4997210;28;20202;-70
2023/07/17 06:23:02;;;;;;;2.13;1.95;;;25.30;99.90;;;;;;4997150;28;20590;-70
2023/07/17 06:25:29;;;;;;;1.55;1.45;;;25.90;99.90;;;;;;4997037;28;20202;-71
2023/07/17 06:27:55;;;;;;;2.88;1.60;;;25.90;99.90;;;;;;4996936;28;20226;-70
2023/07/17 06:30:22;;;;;;;2.00;1.80;;;25.50;99.90;;;;;;4996983;28;20209;-71
2023/07/17 06:32:50;;;;;;;1.90;1.80;;;24.90;99.90;;;;;;4996536;28;20670;-71
2023/07/17 06:35:17;;;;;;;1.85;1.75;;;24.50;99.90;;;;;;4996842;28;20202;-71
2023/07/17 06:37:43;;;;;;;1.98;1.80;;;24.40;99.90;;;;;;4996609;28;20253;-70
2023/07/17 06:40:12;;;;;;;1.70;1.70;;;24.40;99.90;;;;;;4996732;28;20209;-70
2023/07/17 06:42:38;;;;;;;1.65;1.55;;;24.30;99.90;;;;;;4996683;28;20268;-70
2023/07/17 06:45:06;;;;;;;1.50;1.40;;;24.20;99.90;;;;;;4995658;28;20202;-70
2023/07/17 06:47:33;;;;;;;1.73;1.63;;;24.30;99.90;;;;;;4996546;28;20321;-70
2023/07/17 06:50:01;;;;;;;1.55;1.45;;;24.30;99.90;;;;;;4996603;28;20209;-70
2023/07/17 06:52:28;;;;;;;1.30;1.30;;;24.70;99.90;;;;;;4996586;28;20541;-70
2023/07/17 06:54:55;;;;;;;1.65;1.58;;;25.00;99.90;;;;;;4996485;28;20209;-70
2023/07/17 06:57:22;;;;;;;2.08;1.95;;;25.20;99.90;;;;;;4995852;28;20731;-70
2023/07/17 06:59:49;;;;;;;2.70;1.90;;;25.60;99.90;;;;;;4996246;28;20197;-70
2023/07/17 07:02:15;;;;;;;1.73;1.65;;;25.90;99.90;;;;;;4996123;28;20638;-70
2023/07/17 07:04:42;;;;;;;1.98;1.88;;;26.40;99.90;;;;;;4996263;28;20206;-70
2023/07/17 07:07:10;;;;;;;1.40;1.40;;;26.70;99.90;;;;;;4996131;28;20201;-70
2023/07/17 07:09:37;;;;;;;1.77;1.60;;;26.90;99.90;;;;;;4995841;28;20692;-70
2023/07/17 07:12:04;;;;;;;1.30;1.23;;;27.00;99.90;;;;;;4996137;28;20214;-71
2023/07/17 07:14:31;;;;;;;1.85;1.48;;;26.90;99.90;;;;;;4996143;28;20209;-70
2023/07/17 07:16:57;;;;;;;1.58;1.50;;;26.60;99.90;;;;;;4995778;28;20214;-71
2023/07/17 07:19:24;;;;;;;1.77;1.77;;;26.50;99.90;;;;;;4995678;28;20230;-71
2023/07/17 07:21:51;;;;;;;1.65;1.55;;;26.50;99.90;;;;;;4995701;28;20697;-71
2023/07/17 07:24:19;;;;;;;1.70;1.60;;;27.10;99.90;;;;;;4995966;28;20202;-71
2023/07/17 07:26:45;;;;;;;2.70;1.50;;;28.90;99.90;;;;;;4995900;28;20202;-71
2023/07/17 07:29:12;;;;;;;2.20;1.73;;;30.10;87.80;;;;;;4995823;28;20229;-71
2023/07/17 07:31:39;;;;;;;2.47;1.77;;;31.30;83.30;;;;;;4995751;28;20206;-71
2023/07/17 07:34:05;;;;;;;1.55;1.45;;;32.20;71.50;;;;;;4995698;28;20209;-71
2023/07/17 07:36:32;;;;;;;1.40;1.30;;;32.80;67.80;;;;;;4995604;28;20222;-71
2023/07/17 07:38:59;;;;;;;2.25;1.67;;;32.40;65.50;;;;;;4995864;28;20229;-71
2023/07/17 07:41:27;;;;;;;2.85;1.80;;;31.80;67.50;;;;;;4995500;28;20699;-71
2023/07/17 07:43:53;;;;;;;2.00;1.85;;;30.80;65.80;;;;;;4995511;28;20206;-71
2023/07/17 07:46:20;;;;;;;1.40;1.30;;;29.70;71.90;;;;;;4995523;28;20202;-70
2023/07/17 07:48:47;;;;;;;1.67;1.58;;;29.40;79.60;;;;;;4995322;28;20588;-71
2023/07/17 07:51:14;;;;;;;3.40;1.50;;;29.60;84.40;;;;;;4995328;28;20209;-71
2023/07/17 07:53:40;;;;;;;1.80;1.70;;;30.30;77.50;;;;;;4995305;28;20209;-70
2023/07/17 07:56:07;;;;;;;1.77;1.65;;;30.70;74.30;;;;;;4995190;28;20565;-70
2023/07/17 07:58:35;;;;;;;2.00;1.90;;;31.70;70.40;;;;;;4995156;28;20229;-69
2023/07/17 08:01:02;;;;;;;2.08;1.98;;;32.90;65.40;;;;;;4994870;28;20210;-70
2023/07/17 08:03:29;;;;;;;2.75;2.08;;;33.90;61.80;;;;;;4995123;28;20570;-71
2023/07/17 08:05:56;;;;;;;2.22;1.90;;;33.90;57.40;;;;;;4995114;28;20202;-71
2023/07/17 08:08:22;;;;;;;1.95;1.90;;;34.00;56.80;;;;;;4994689;28;20237;-70
2023/07/17 08:10:52;;;;;;;3.00;2.00;;;33.90;57.10;;;;;;4995078;28;20206;-70
2023/07/17 08:13:19;;;;;;;2.25;2.10;;;34.00;57.70;;;;;;4994982;28;20236;-70
2023/07/17 08:15:47;;;;;;;1.88;1.77;;;32.90;55.80;;;;;;4994654;28;20658;-70
2023/07/17 08:18:14;;;;;;;2.35;1.70;;;32.30;60.70;;;;;;4994747;28;20236;-70
2023/07/17 08:20:41;;;;;;;1.77;1.67;;;32.10;58.70;;;;;;4994896;28;20209;-70
2023/07/17 08:23:07;;;;;;;1.70;1.58;;;31.60;61.00;;;;;;4994888;28;20205;-70
2023/07/17 08:25:34;;;;;;;1.75;1.65;;;31.30;59.90;;;;;;4995363;28;20658;-70
2023/07/17 08:28:01;;;;;;;1.42;1.42;;;31.10;60.90;;;;;;4995123;28;20233;-70
2023/07/17 08:30:27;;;;;;;1.85;1.70;;;30.90;60.60;;;;;;4994431;28;20692;-70
2023/07/17 08:32:56;;;;;;;1.98;1.88;;;30.60;62.70;;;;;;4994704;28;20206;-70
2023/07/17 08:35:22;;;;;;;2.00;1.90;;;30.60;61.20;;;;;;4994701;28;20237;-70
2023/07/17 08:37:49;;;;;;;1.92;1.83;;;30.20;59.60;;;;;;4994945;28;20230;-70
2023/07/17 08:40:16;;;;;;;2.13;1.98;;;29.70;62.10;;;;;;4996436;28;20205;-70
2023/07/17 08:42:45;;;;;;;2.72;1.88;;;29.30;61.10;;;;;;4995922;28;20206;-70
2023/07/17 08:45:13;;;;;;;2.00;1.90;;;28.60;63.90;;;;;;4994300;28;20237;-71
2023/07/17 08:47:40;;;;;;;1.73;1.63;;;28.50;67.50;;;;;;4994152;28;20701;-70
2023/07/17 08:50:09;;;;;;;2.03;1.98;;;28.50;68.20;;;;;;4994055;28;20674;-70
2023/07/17 08:52:36;;;;;;;1.98;1.88;;;28.40;68.60;;;;;;4994255;28;20206;-70
2023/07/17 08:55:03;;;;;;;1.65;1.63;;;28.40;68.50;;;;;;4994763;28;20213;-71
2023/07/17 08:57:32;;;;;;;1.67;1.60;;;28.30;67.90;;;;;;4994189;28;20229;-70
2023/07/17 08:59:59;;;;;;;1.67;1.67;;;28.10;71.50;;;;;;4994213;28;20260;-70
2023/07/17 09:02:26;;;;;;;1.88;1.77;;;28.40;74.30;;;;;;4994324;28;20194;-70
2023/07/17 09:04:52;;;;;;;2.08;1.98;;;28.60;70.00;;;;;;4994262;28;20586;-70
2023/07/17 09:07:20;;;;;;;2.03;1.92;;;28.80;68.80;;;;;;4994093;28;20198;-70
2023/07/17 09:09:47;;;;;;;2.58;2.00;;;28.50;66.50;;;;;;4993966;28;20202;-70
2023/07/17 09:12:16;;;;;;;2.20;2.00;;;28.00;69.70;;;;;;4994219;28;20198;-70
2023/07/17 09:14:42;;;;;;;1.98;1.85;;;27.80;71.60;;;;;;4994171;28;20249;-70
2023/07/17 09:17:10;;;;;;;2.47;2.25;;;27.60;71.80;;;;;;4994118;28;20220;-70
2023/07/17 09:19:38;;;;;;;2.28;2.17;;;27.40;71.10;;;;;;4993814;28;20574;-70
2023/07/17 09:22:06;;;;;;;2.22;2.03;;;27.30;71.20;;;;;;4994082;28;20286;-70
2023/07/17 09:24:36;;;;;;;1.90;1.80;;;27.00;74.40;;;;;;4993767;28;20208;-70
2023/07/17 09:27:05;;;;;;;2.15;2.00;;;26.80;75.10;;;;;;4994120;28;20257;-70
2023/07/17 09:29:32;;;;;;;2.38;2.28;;;26.60;75.30;;;;;;4993963;28;20646;-70
2023/07/17 09:32:14;;;;;;;2.40;2.20;;;26.50;76.50;;;;;;4994049;28;20210;-71
2023/07/17 09:34:41;;;;;;;2.00;1.83;;;26.30;78.20;;;;;;4994065;28;20186;-71
2023/07/17 09:37:09;;;;;;;2.38;2.22;;;26.30;77.80;;;;;;4993858;28;20233;-70
2023/07/17 09:39:38;;;;;;;2.28;2.15;;;26.20;77.10;;;;;;4994000;28;20234;-70
2023/07/17 09:42:21;;;;;;;2.10;2.00;;;26.20;78.70;;;;;;4993946;28;20234;-70
2023/07/17 09:44:48;;;;;;;2.53;2.33;;;26.20;79.80;;;;;;4993951;28;20187;-70
2023/07/17 09:47:15;;;;;;;2.00;1.80;;;26.00;88.00;;;;;;4993890;28;20202;-70
2023/07/17 09:49:42;;;;;;;2.42;2.10;;;26.10;90.10;;;;;;4993880;28;20209;-70
2023/07/17 09:52:09;;;;;;;2.33;2.22;;;26.00;91.40;;;;;;4993598;28;20202;-71
2023/07/17 09:54:41;;;;;;;2.42;2.33;;;25.80;91.00;;;;;;4993955;28;20209;-71
2023/07/17 09:57:10;;;;;;;2.95;2.30;;;25.50;91.40;;;;;;4993676;28;20223;-71
2023/07/17 09:59:42;;;;;;;2.85;2.60;;;25.20;94.90;;;;;;4993773;28;20202;-70
2023/07/17 10:02:16;;;;;;;3.17;2.70;;;25.10;96.30;;;;;;4993939;28;20186;-71
2023/07/17 10:04:50;;;;;;;2.65;2.50;;;24.90;97.90;;;;;;4993903;28;20190;-70
2023/07/17 10:07:18;;;;;;;2.67;2.55;;;24.80;97.30;;;;;;4994752;28;20187;-71
2023/07/17 10:09:48;;;;;;;2.53;2.42;;;24.80;99.90;;;;;;4995122;28;20202;-70
2023/07/17 10:12:16;;;;;;;2.28;2.05;;;25.00;98.00;;;;;;4994189;28;20191;-70
2023/07/17 10:14:45;;;;;;;2.40;2.30;;;25.20;98.80;;;;;;5016813;23;20226;-70
2023/07/17 10:17:24;;;;;;;2.05;1.95;;;25.40;99.70;;;;;;4993809;28;20222;-69
2023/07/17 10:19:51;;;;;;;2.28;2.10;;;25.80;99.90;;;;;;4994867;28;20198;-70
2023/07/17 10:22:18;;;;;;;2.88;2.00;;;26.00;97.70;;;;;;4999206;28;20278;-70
2023/07/17 10:24:46;;;;;;;2.13;2.00;;;26.20;92.40;;;;;;4997933;28;20273;-70
2023/07/17 10:27:13;;;;;;;2.17;2.08;;;26.20;94.30;;;;;;4998525;28;20266;-70
2023/07/17 10:29:42;;;;;;;2.10;2.00;;;26.40;94.60;;;;;;4997953;28;20202;-70
2023/07/17 10:32:11;;;;;;;2.30;2.20;;;26.60;92.10;;;;;;4998377;28;20202;-70
2023/07/17 10:34:51;;;;;;;2.17;2.08;;;26.90;92.40;;;;;;4997578;28;20222;-70
2023/07/17 10:37:40;;;;;;;2.33;2.22;;;27.30;90.70;;;;;;4997334;28;20218;-70
2023/07/17 10:40:25;;;;;;;2.08;2.00;;;27.60;88.20;;;;;;4998390;28;20209;-70
2023/07/17 10:42:53;;;;;;;2.13;2.03;;;27.60;85.20;;;;;;4997466;28;20608;-71
2023/07/17 10:45:20;;;;;;;1.75;1.65;;;27.80;77.40;;;;;;4996657;28;20592;-71
2023/07/17 10:47:49;;;;;;;2.80;2.60;;;27.90;77.80;;;;;;4996838;28;20198;-70
2023/07/17 10:50:17;;;;;;;2.70;2.53;;;27.80;74.20;;;;;;4996989;28;20214;-70
2023/07/17 10:52:44;;;;;;;2.97;2.65;;;27.70;75.20;;;;;;4996463;28;20198;-70
2023/07/17 10:55:12;;;;;;;2.50;2.30;;;27.40;78.60;;;;;;4996478;28;20604;-70
2023/07/17 10:57:39;;;;;;;2.60;2.45;;;27.30;75.90;;;;;;4996501;28;20218;-70
2023/07/17 11:00:07;;;;;;;2.95;2.72;;;27.30;80.90;;;;;;4996516;28;20202;-70
2023/07/17 11:02:34;;;;;;;2.90;2.70;;;26.90;85.20;;;;;;4996210;28;20724;-70
2023/07/17 11:05:03;;;;;;;2.35;2.10;;;26.90;87.60;;;;;;4996123;28;20230;-70
2023/07/17 11:07:33;;;;;;;2.70;2.47;;;26.80;88.90;;;;;;4996241;28;20546;-70
2023/07/17 11:10:00;;;;;;;2.28;2.08;;;26.80;90.20;;;;;;4996244;28;20198;-70
2023/07/17 11:12:28;;;;;;;2.60;2.50;;;26.90;82.20;;;;;;4995756;28;20666;-70
2023/07/17 11:14:55;;;;;;;2.25;2.15;;;26.70;87.30;;;;;;4995713;28;20236;-70
2023/07/17 11:17:22;;;;;;;2.30;2.20;;;26.70;86.60;;;;;;4995941;28;20249;-70
2023/07/17 11:19:49;;;;;;;2.33;2.13;;;26.80;93.40;;;;;;4996201;28;20202;-70
2023/07/17 11:22:15;;;;;;;2.05;1.95;;;27.00;94.50;;;;;;4996203;28;20210;-70
2023/07/17 11:24:42;;;;;;;1.63;1.52;;;27.40;94.60;;;;;;4995852;28;20237;-70
2023/07/17 11:27:09;;;;;;;2.22;2.13;;;27.60;85.60;;;;;;4996129;28;20209;-71
2023/07/17 11:29:41;;;;;;;2.30;2.10;;;27.60;89.50;;;;;;4995643;28;20209;-71
2023/07/17 11:32:08;;;;;;;2.47;2.30;;;27.80;87.20;;;;;;4995495;28;20214;-71
2023/07/17 11:34:36;;;;;;;2.85;2.70;;;27.90;85.30;;;;;;4995740;28;20245;-70
2023/07/17 11:37:03;;;;;;;2.88;2.67;;;27.80;85.70;;;;;;4995612;28;20206;-69
2023/07/17 11:39:32;;;;;;;1.85;1.80;;;27.90;90.90;;;;;;4996162;28;20198;-68
2023/07/17 11:41:59;;;;;;;2.20;2.10;;;28.00;88.00;;;;;;4997764;28;20720;-68
2023/07/17 11:44:29;;;;;;;2.10;2.00;;;28.10;87.40;;;;;;4997491;28;20727;-68
2023/07/17 11:46:59;;;;;;;2.30;2.20;;;28.20;90.80;;;;;;4997141;28;20203;-70
2023/07/17 11:49:27;;;;;;;2.55;2.40;;;28.30;87.10;;;;;;4996959;28;20657;-70
2023/07/17 11:51:55;;;;;;;2.55;2.42;;;28.10;89.70;;;;;;4996314;28;20202;-70
2023/07/17 11:54:22;;;;;;;2.50;2.30;;;28.10;92.50;;;;;;4997563;28;20222;-70
2023/07/17 11:56:50;;;;;;;2.10;2.00;;;27.90;90.80;;;;;;4997178;28;20241;-70
2023/07/17 11:59:19;;;;;;;2.30;2.10;;;27.70;90.30;;;;;;4998627;28;20590;-70
2023/07/17 12:01:45;;;;;;;2.80;2.30;;;27.50;85.80;;;;;;4999537;28;20225;-71
2023/07/17 12:04:24;;;;;;;2.17;2.10;;;27.30;86.70;;;;;;4997832;28;20205;-70
2023/07/17 12:06:53;;;;;;;2.33;2.17;;;27.30;88.10;;;;;;4997256;28;20201;-70
2023/07/17 12:09:20;;;;;;;2.33;2.03;;;27.20;90.10;;;;;;4996274;28;20206;-70
2023/07/17 12:11:48;;;;;;;2.70;2.15;;;27.30;93.50;;;;;;4996085;28;20628;-71
2023/07/17 12:14:16;;;;;;;2.10;2.00;;;27.30;93.40;;;;;;4995750;28;20198;-70
2023/07/17 12:16:44;;;;;;;1.92;1.83;;;27.20;93.20;;;;;;4996571;28;20183;-72
2023/07/17 12:19:11;;;;;;;2.30;2.20;;;27.10;93.50;;;;;;4996436;28;20218;-71
2023/07/17 12:21:40;;;;;;;3.00;2.78;;;27.10;96.00;;;;;;4996219;28;20654;-71
2023/07/17 12:24:07;;;;;;;2.47;2.38;;;27.10;95.60;;;;;;4996104;28;20313;-70
2023/07/17 12:26:34;;;;;;;2.10;2.00;;;27.00;95.50;;;;;;4996210;28;20567;-71
2023/07/17 12:29:01;;;;;;;2.90;2.28;;;26.90;97.90;;;;;;4996061;28;20380;-72
2023/07/17 12:31:28;;;;;;;2.10;2.05;;;26.80;99.90;;;;;;4995654;28;20206;-71
2023/07/17 12:33:55;;;;;;;2.70;2.60;;;26.70;99.90;;;;;;4995963;28;20653;-71
2023/07/17 12:36:22;;;;;;;2.67;2.50;;;26.60;98.80;;;;;;4995610;28;20309;-71
2023/07/17 12:38:50;;;;;;;2.67;2.47;;;26.50;98.90;;;;;;4995453;28;20226;-70
2023/07/17 12:41:18;;;;;;;2.17;2.08;;;26.60;99.90;;;;;;4995326;28;20202;-71
2023/07/17 12:43:48;;;;;;;2.08;1.98;;;26.60;97.10;;;;;;4995282;28;20581;-71
2023/07/17 12:46:15;;;;;;;2.38;2.28;;;26.70;99.90;;;;;;4995580;28;20309;-71
2023/07/17 12:48:42;;;;;;;2.25;2.15;;;26.70;99.90;;;;;;4995446;28;20202;-71
2023/07/17 12:51:09;;;;;;;2.45;2.35;;;26.80;96.50;;;;;;4995597;28;20197;-71
2023/07/17 12:53:36;;;;;;;2.45;2.35;;;26.70;95.90;;;;;;4995266;28;20292;-71
2023/07/17 12:56:04;;;;;;;2.13;1.90;;;26.70;99.90;;;;;;4994294;28;20249;-72
2023/07/17 12:58:31;;;;;;;2.45;2.35;;;26.90;94.00;;;;;;4994260;28;20221;-71
2023/07/17 13:00:58;;;;;;;2.20;2.10;;;26.90;96.00;;;;;;4994314;28;20190;-71
2023/07/17 13:03:24;;;;;;;2.13;1.90;;;27.00;99.80;;;;;;4993979;28;20218;-71
2023/07/17 13:05:51;;;;;;;2.08;1.98;;;27.30;98.30;;;;;;4994204;28;20234;-70
2023/07/17 13:08:18;;;;;;;2.22;2.13;;;27.40;95.90;;;;;;4994289;28;20201;-71
2023/07/17 13:10:45;;;;;;;2.03;1.98;;;27.70;94.30;;;;;;4993878;28;20206;-72
2023/07/17 13:13:13;;;;;;;1.90;1.80;;;27.80;92.80;;;;;;4995327;28;20206;-71
2023/07/17 13:15:40;;;;;;;2.17;2.08;;;28.00;92.00;;;;;;4994936;28;20237;-70
2023/07/17 13:18:07;;;;;;;2.22;2.13;;;28.20;92.50;;;;;;4994724;28;20312;-70
2023/07/17 13:20:34;;;;;;;2.38;2.25;;;28.20;85.70;;;;;;4995506;28;20615;-70
2023/07/17 13:23:01;;;;;;;2.38;2.03;;;28.20;87.40;;;;;;4995284;28;20244;-71
2023/07/17 13:25:28;;;;;;;2.55;2.35;;;28.40;91.30;;;;;;4994932;28;20305;-70
2023/07/17 13:27:55;;;;;;;2.10;2.00;;;28.60;90.00;;;;;;4994844;28;20573;-71
2023/07/17 13:30:23;;;;;;;1.92;1.85;;;28.70;86.20;;;;;;4994538;28;20212;-71
2023/07/17 13:32:50;;;;;;;3.22;2.10;;;28.60;76.40;;;;;;4995098;28;20206;-71
2023/07/17 13:35:17;;;;;;;2.45;2.35;;;28.60;79.00;;;;;;4995136;28;20297;-70
2023/07/17 13:37:45;;;;;;;2.40;2.30;;;28.60;76.10;;;;;;4994566;28;20536;-70
2023/07/17 13:40:13;;;;;;;2.58;2.38;;;28.70;76.20;;;;;;4993667;28;20573;-71
2023/07/17 13:42:40;;;;;;;2.65;2.38;;;28.70;76.20;;;;;;4994219;28;20197;-71
2023/07/17 13:45:08;;;;;;;2.28;2.13;;;28.60;76.70;;;;;;4993599;28;20725;-71
2023/07/17 13:47:36;;;;;;;2.33;2.25;;;28.50;75.80;;;;;;4993572;28;20661;-70
2023/07/17 13:50:05;;;;;;;2.63;2.42;;;28.40;75.90;;;;;;4993970;28;20203;-72
2023/07/17 13:52:31;;;;;;;2.42;2.22;;;28.20;74.30;;;;;;4993881;28;20296;-71
2023/07/17 13:54:58;;;;;;;3.47;2.33;;;28.00;74.20;;;;;;4996147;28;20229;-70
2023/07/17 13:57:25;;;;;;;2.60;2.40;;;27.90;75.70;;;;;;4997609;28;20209;-70
2023/07/17 13:59:52;;;;;;;2.28;2.17;;;28.00;77.20;;;;;;4997262;28;20732;-71
2023/07/17 14:02:19;;;;;;;2.63;2.50;;;28.10;73.70;;;;;;4998275;28;20210;-72
2023/07/17 14:04:47;;;;;;;2.25;2.15;;;28.20;75.70;;;;;;4997625;28;20226;-71
2023/07/17 14:07:13;;;;;;;2.67;2.05;;;28.40;77.60;;;;;;4997386;28;20198;-71
2023/07/17 14:09:40;;;;;;;2.40;2.30;;;28.30;75.10;;;;;;4997162;28;20198;-71
2023/07/17 14:12:08;;;;;;;2.47;2.28;;;28.10;75.70;;;;;;4997268;28;20201;-71
2023/07/17 14:14:35;;;;;;;2.42;2.30;;;27.80;75.40;;;;;;4998186;28;20237;-70
2023/07/17 14:17:02;;;;;;;2.47;2.38;;;27.50;75.20;;;;;;5001941;28;20194;-69
2023/07/17 14:19:29;;;;;;;2.63;2.42;;;27.30;76.80;;;;;;5001510;28;20218;-70
2023/07/17 14:21:58;;;;;;;2.15;2.05;;;27.20;79.20;;;;;;5001459;28;20574;-69
2023/07/17 14:24:25;;;;;;;2.20;2.10;;;27.20;82.60;;;;;;5001490;28;20689;-69
2023/07/17 14:26:52;;;;;;;2.20;2.10;;;27.20;84.50;;;;;;4998324;28;20225;-70
2023/07/17 14:29:19;;;;;;;2.25;2.15;;;27.10;86.60;;;;;;4997023;28;20206;-69
2023/07/17 14:31:45;;;;;;;2.00;1.90;;;27.10;89.20;;;;;;4996641;28;20669;-69
2023/07/17 14:34:12;;;;;;;1.73;1.67;;;27.00;86.80;;;;;;4996959;28;20206;-70
2023/07/17 14:36:39;;;;;;;2.00;2.00;;;27.10;86.50;;;;;;4996987;28;20212;-70
2023/07/17 14:39:07;;;;;;;2.20;2.13;;;27.10;86.20;;;;;;4996818;28;20593;-70
2023/07/17 14:41:34;;;;;;;2.55;2.35;;;27.30;88.20;;;;;;4996765;28;20542;-70
2023/07/17 14:44:01;;;;;;;1.95;1.95;;;27.40;90.10;;;;;;4996596;28;20206;-70
2023/07/17 14:46:28;;;;;;;2.05;1.95;;;27.40;82.10;;;;;;4996827;28;20201;-70
2023/07/17 14:48:55;;;;;;;2.15;2.05;;;27.50;78.70;;;;;;4996276;28;20654;-70
2023/07/17 14:51:22;;;;;;;1.92;1.83;;;27.70;79.50;;;;;;4996635;28;20209;-70
2023/07/17 14:53:49;;;;;;;1.85;1.85;;;27.90;83.10;;;;;;4996553;28;20198;-70
2023/07/17 14:56:17;;;;;;;2.17;2.08;;;27.90;75.50;;;;;;4996362;28;20225;-69
2023/07/17 14:58:44;;;;;;;2.25;2.15;;;28.00;77.90;;;;;;4996708;28;20218;-69
2023/07/17 15:01:11;;;;;;;2.22;2.13;;;28.00;76.30;;;;;;4996064;28;20202;-70
2023/07/17 15:03:37;;;;;;;2.30;2.20;;;28.00;74.70;;;;;;4996822;28;20210;-69
2023/07/17 15:06:04;;;;;;;2.42;2.33;;;28.00;75.00;;;;;;4995157;28;20728;-71
2023/07/17 15:08:31;;;;;;;2.28;2.17;;;27.90;75.00;;;;;;4996429;28;20205;-72
2023/07/17 15:10:57;;;;;;;2.05;1.95;;;27.80;72.20;;;;;;4996076;28;20202;-68
2023/07/17 15:13:25;;;;;;;2.00;1.90;;;27.80;72.10;;;;;;4996191;28;20202;-68
2023/07/17 15:15:52;;;;;;;2.00;1.90;;;27.80;77.10;;;;;;4995940;28;20338;-68
2023/07/17 15:18:19;;;;;;;1.95;1.77;;;27.80;72.80;;;;;;4999803;28;20670;-69
2023/07/17 15:20:45;;;;;;;2.08;2.00;;;27.70;72.80;;;;;;4998719;28;20210;-68
2023/07/17 15:23:12;;;;;;;1.88;1.83;;;27.70;75.30;;;;;;4996834;28;20350;-68
2023/07/17 15:25:39;;;;;;;1.67;1.67;;;27.80;75.40;;;;;;4996935;28;20312;-68
2023/07/17 15:28:05;;;;;;;1.70;1.60;;;27.80;78.10;;;;;;4996055;28;20205;-68
2023/07/17 15:30:34;;;;;;;2.20;2.10;;;27.80;74.70;;;;;;4995847;28;20598;-68
2023/07/17 15:33:00;;;;;;;1.85;1.83;;;27.70;74.90;;;;;;4996729;28;20202;-68
2023/07/17 15:35:27;;;;;;;2.13;2.03;;;27.70;75.30;;;;;;4996198;28;20218;-68
2023/07/17 15:37:53;;;;;;;2.97;2.75;;;27.70;75.80;;;;;;4996181;28;20546;-69
2023/07/17 15:40:20;;;;;;;2.35;2.25;;;27.60;77.10;;;;;;4996107;28;20222;-68
2023/07/17 15:42:47;;;;;;;2.40;2.30;;;27.60;78.20;;;;;;4996171;28;20205;-68
2023/07/17 15:45:20;;;;;;;2.28;2.17;;;27.60;80.60;;;;;;4995860;28;20225;-68
2023/07/17 15:47:48;;;;;;;2.58;2.38;;;27.40;77.00;;;;;;4995884;28;20222;-68
2023/07/17 15:50:15;;;;;;;3.00;2.80;;;27.10;80.20;;;;;;4995394;28;20265;-68
2023/07/17 15:52:42;;;;;;;2.78;2.50;;;26.90;82.30;;;;;;4995578;28;20202;-69
2023/07/17 15:55:09;;;;;;;2.88;2.67;;;26.60;84.30;;;;;;4995506;28;20417;-69
2023/07/17 15:57:36;;;;;;;2.35;2.25;;;26.50;87.70;;;;;;4995696;28;20209;-68
2023/07/17 16:00:04;;;;;;;2.22;2.13;;;26.40;89.20;;;;;;4995558;28;20229;-68
2023/07/17 16:02:31;;;;;;;2.55;2.40;;;26.20;91.40;;;;;;4995742;28;20257;-68
2023/07/17 16:04:59;;;;;;;2.75;2.55;;;26.20;91.50;;;;;;4995266;28;20225;-68
2023/07/17 16:07:25;;;;;;;3.53;2.92;;;26.10;93.20;;;;;;4994876;28;20665;-69
2023/07/17 16:09:52;;;;;;;2.65;2.45;;;25.80;93.10;;;;;;4995226;28;20205;-68
2023/07/17 16:12:19;;;;;;;3.05;2.85;;;25.80;94.60;;;;;;4995127;28;20202;-68
2023/07/17 16:14:46;;;;;;;2.53;2.42;;;25.60;95.30;;;;;;4994633;28;20236;-68
2023/07/17 16:17:13;;;;;;;2.60;2.40;;;25.60;96.20;;;;;;4994978;28;20210;-68
2023/07/17 16:19:43;;;;;;;2.95;2.75;;;25.70;98.70;;;;;;4994590;28;20589;-68
2023/07/17 16:22:11;;;;;;;2.40;2.30;;;25.80;99.90;;;;;;4995007;28;20221;-68
2023/07/17 16:24:38;;;;;;;2.08;1.98;;;26.10;96.80;;;;;;4994812;28;20226;-68
2023/07/17 16:27:05;;;;;;;1.90;1.80;;;26.20;97.00;;;;;;4995539;28;20202;-68
2023/07/17 16:29:32;;;;;;;2.25;1.85;;;26.30;94.10;;;;;;4994789;28;20247;-68
2023/07/17 16:31:58;;;;;;;2.33;2.20;;;26.30;92.30;;;;;;4994584;28;20198;-68
2023/07/17 16:34:25;;;;;;;1.92;1.83;;;26.20;93.10;;;;;;4994455;28;20222;-67
2023/07/17 16:36:52;;;;;;;2.03;1.92;;;26.10;93.50;;;;;;4994730;28;20190;-67
2023/07/17 16:39:20;;;;;;;2.30;2.10;;;26.00;94.70;;;;;;4994498;28;20590;-68
2023/07/17 16:41:47;;;;;;;2.40;2.22;;;25.80;96.40;;;;;;4994558;28;20186;-67
2023/07/17 16:44:13;;;;;;;2.30;2.20;;;25.70;98.00;;;;;;4994507;28;20194;-67
2023/07/17 16:46:40;;;;;;;2.90;2.70;;;25.60;99.10;;;;;;4994365;28;20186;-67